createdAt,value
2023-01-09T00:01:53.937Z,40.78
2023-01-09T00:04:23.469Z,37.53
2023-01-09T00:06:56.226Z,38.50
2023-01-09T00:09:24.976Z,39.35
2023-01-09T00:11:52.864Z,37.88
2023-01-09T00:14:20.446Z,40.03
2023-01-09T00:16:50.202Z,37.40
2023-01-09T00:19:17.387Z,37.55
2023-01-09T00:21:44.421Z,38.25
2023-01-09T00:24:11.558Z,39.42
2023-01-09T00:26:38.691Z,36.97
2023-01-09T00:29:06.058Z,38.95
2023-01-09T00:31:33.170Z,37.65
2023-01-09T00:34:07.690Z,37.17
2023-01-09T00:36:34.795Z,37.50
2023-01-09T00:39:02.049Z,36.22
2023-01-09T00:41:41.835Z,36.72
2023-01-09T00:44:22.794Z,36.92
2023-01-09T00:46:58.879Z,36.47
2023-01-09T00:49:31.408Z,35.58
2023-01-09T00:51:59.416Z,35.45
2023-01-09T00:54:29.035Z,36.22
2023-01-09T00:56:56.696Z,37.38
2023-01-09T00:59:24.013Z,36.83
2023-01-09T01:01:51.358Z,35.40
2023-01-09T01:04:37.207Z,34.55
2023-01-09T01:07:23.058Z,35.13
2023-01-09T01:09:52.422Z,33.83
2023-01-09T01:12:19.685Z,33.28
2023-01-09T01:14:49.087Z,33.80
2023-01-09T01:17:18.590Z,34.70
2023-01-09T01:19:45.701Z,32.63
2023-01-09T01:22:17.195Z,34.67
2023-01-09T01:24:44.414Z,30.45
2023-01-09T01:27:14.503Z,31.90
2023-01-09T01:29:41.563Z,31.02
2023-01-09T01:32:08.812Z,33.13
2023-01-09T01:34:35.876Z,33.95
2023-01-09T01:37:05.984Z,32.58
2023-01-09T01:39:33.124Z,33.75
2023-01-09T01:42:00.491Z,32.95
2023-01-09T01:45:13.186Z,32.78
2023-01-09T01:48:11.267Z,33.25
2023-01-09T01:50:44.776Z,34.05
2023-01-09T01:53:20.541Z,32.08
2023-01-09T01:55:49.008Z,31.10
2023-01-09T01:58:16.944Z,33.15
2023-01-09T02:00:48.310Z,30.25
2023-01-09T02:03:22.875Z,31.07
2023-01-09T02:05:50.296Z,30.13
2023-01-09T02:08:18.034Z,28.83
2023-01-09T02:10:46.399Z,31.17
2023-01-09T02:13:14.437Z,30.27
2023-01-09T02:15:58.835Z,29.20
2023-01-09T02:18:54.252Z,30.42
2023-01-09T02:22:12.010Z,28.60
2023-01-09T02:24:59.055Z,28.35
2023-01-09T02:28:04.295Z,28.95
2023-01-09T02:31:17.740Z,29.73
2023-01-09T02:34:33.002Z,30.10
2023-01-09T02:37:16.740Z,31.25
2023-01-09T02:39:58.014Z,32.42
2023-01-09T02:42:27.181Z,31.05
2023-01-09T02:44:54.337Z,31.23
2023-01-09T02:47:21.252Z,29.60
2023-01-09T02:50:02.470Z,29.42
2023-01-09T02:52:59.791Z,30.73
2023-01-09T02:55:50.928Z,30.42
2023-01-09T02:58:34.572Z,30.60
2023-01-09T03:01:16.659Z,29.00
2023-01-09T03:04:41.095Z,30.98
2023-01-09T03:07:30.714Z,29.48
2023-01-09T03:10:09.089Z,32.75
2023-01-09T03:12:40.650Z,32.40
2023-01-09T03:15:13.052Z,30.15
2023-01-09T03:17:48.614Z,30.05
2023-01-09T03:20:22.261Z,29.60
2023-01-09T03:23:00.830Z,30.33
2023-01-09T03:25:30.494Z,29.98
2023-01-09T03:28:14.277Z,27.33
2023-01-09T03:30:41.326Z,28.23
2023-01-09T03:33:08.501Z,29.05
2023-01-09T03:35:38.371Z,28.23
2023-01-09T03:38:07.310Z,30.30
2023-01-09T03:40:35.199Z,29.13
2023-01-09T03:43:06.762Z,28.23
2023-01-09T03:45:33.937Z,29.00
2023-01-09T03:48:01.060Z,27.63
2023-01-09T03:50:28.192Z,28.33
2023-01-09T03:52:55.275Z,27.20
2023-01-09T03:55:22.339Z,27.75
2023-01-09T03:57:52.724Z,26.88
2023-01-09T04:00:21.109Z,28.05
2023-01-09T04:02:48.473Z,26.85
2023-01-09T04:05:15.611Z,27.17
2023-01-09T04:07:42.692Z,27.73
2023-01-09T04:10:17.262Z,26.60
2023-01-09T04:12:44.393Z,27.55
2023-01-09T04:15:11.775Z,28.55
2023-01-09T04:17:38.838Z,29.40
2023-01-09T04:20:06.754Z,28.60
2023-01-09T04:22:33.852Z,31.00
2023-01-09T04:25:01.102Z,45.00
2023-01-09T04:27:28.215Z,47.45
2023-01-09T04:29:55.270Z,39.28
2023-01-09T04:32:24.884Z,36.08
2023-01-09T04:34:54.161Z,46.28
2023-01-09T04:37:22.904Z,36.83
2023-01-09T04:39:51.583Z,36.08
2023-01-09T04:42:18.691Z,30.00
2023-01-09T04:44:45.825Z,30.15
2023-01-09T04:47:13.739Z,30.35
2023-01-09T04:49:40.858Z,32.25
2023-01-09T04:52:07.909Z,32.78
2023-01-09T04:54:35.025Z,30.10
2023-01-09T04:57:04.616Z,28.95
2023-01-09T04:59:34.185Z,29.55
2023-01-09T05:02:01.499Z,28.10
2023-01-09T05:04:28.874Z,28.08
2023-01-09T05:06:56.310Z,28.90
2023-01-09T05:09:23.508Z,28.95
2023-01-09T05:11:53.383Z,29.08
2023-01-09T05:14:22.735Z,27.27
2023-01-09T05:16:52.123Z,30.52
2023-01-09T05:19:19.490Z,28.58
2023-01-09T05:21:49.002Z,28.67
2023-01-09T05:24:16.208Z,29.67
2023-01-09T05:26:45.765Z,27.23
2023-01-09T05:29:12.936Z,27.42
2023-01-09T05:31:40.097Z,27.23
2023-01-09T05:34:07.246Z,30.65
2023-01-09T05:36:36.790Z,30.25
2023-01-09T05:39:05.714Z,29.45
2023-01-09T05:41:32.812Z,29.70
2023-01-09T05:44:02.417Z,30.70
2023-01-09T05:46:29.476Z,30.75
2023-01-09T05:48:56.622Z,29.83
2023-01-09T05:51:23.797Z,28.85
2023-01-09T05:53:50.947Z,31.35
2023-01-09T05:56:17.991Z,31.92
2023-01-09T05:58:45.050Z,30.95
2023-01-09T06:01:12.305Z,32.55
2023-01-09T06:03:39.425Z,30.48
2023-01-09T06:06:07.120Z,30.27
2023-01-09T06:08:34.329Z,30.38
2023-01-09T06:11:01.594Z,30.15
2023-01-09T06:13:28.942Z,35.80
2023-01-09T06:15:56.131Z,29.90
2023-01-09T06:18:23.431Z,31.02
2023-01-09T06:20:50.672Z,37.35
2023-01-09T06:23:17.825Z,34.88
2023-01-09T06:25:47.540Z,32.65
2023-01-09T06:28:14.821Z,30.20
2023-01-09T06:30:41.964Z,32.20
2023-01-09T06:33:09.025Z,35.22
2023-01-09T06:35:36.139Z,32.78
2023-01-09T06:38:05.692Z,33.38
2023-01-09T06:40:32.904Z,34.63
2023-01-09T06:43:00.043Z,34.75
2023-01-09T06:45:27.289Z,35.47
2023-01-09T06:47:59.382Z,37.90
2023-01-09T06:50:28.712Z,35.95
2023-01-09T06:52:55.900Z,34.67
2023-01-09T06:55:23.301Z,35.45
2023-01-09T06:57:50.477Z,35.35
2023-01-09T07:00:18.326Z,37.15
2023-01-09T07:02:47.851Z,33.83
2023-01-09T07:05:15.248Z,35.42
2023-01-09T07:07:42.435Z,34.88
2023-01-09T07:10:11.143Z,35.13
2023-01-09T07:12:40.952Z,34.92
2023-01-09T07:15:08.989Z,36.45
2023-01-09T07:17:36.327Z,39.72
2023-01-09T07:20:04.544Z,40.25
2023-01-09T07:22:31.675Z,39.70
2023-01-09T07:24:58.892Z,36.83
2023-01-09T07:27:26.115Z,36.85
2023-01-09T07:29:55.783Z,38.22
2023-01-09T07:32:22.943Z,36.60
2023-01-09T07:34:51.664Z,37.53
2023-01-09T07:37:19.418Z,36.42
2023-01-09T07:39:46.728Z,37.45
2023-01-09T07:42:14.087Z,37.28
2023-01-09T07:44:41.444Z,35.38
2023-01-09T07:47:08.765Z,34.55
2023-01-09T07:49:38.400Z,35.92
2023-01-09T07:52:06.210Z,36.55
2023-01-09T07:54:33.525Z,35.60
2023-01-09T07:57:03.975Z,35.35
2023-01-09T07:59:31.100Z,36.40
2023-01-09T08:01:58.609Z,34.85
2023-01-09T08:04:25.822Z,33.90
2023-01-09T08:06:53.098Z,36.67
2023-01-09T08:09:20.236Z,35.85
2023-01-09T08:11:47.480Z,35.03
2023-01-09T08:14:14.677Z,34.28
2023-01-09T08:16:41.928Z,37.03
2023-01-09T08:19:12.144Z,36.47
2023-01-09T08:21:40.065Z,32.25
2023-01-09T08:24:07.765Z,39.30
2023-01-09T08:26:36.835Z,40.72
2023-01-09T08:29:06.637Z,38.85
2023-01-09T08:31:33.840Z,34.83
2023-01-09T08:34:03.335Z,32.97
2023-01-09T08:36:32.655Z,34.90
2023-01-09T08:38:59.725Z,33.05
2023-01-09T08:41:47.620Z,34.00
2023-01-09T08:44:33.478Z,31.35
2023-01-09T08:47:06.634Z,31.80
2023-01-09T08:49:35.959Z,34.25
2023-01-09T08:52:04.516Z,32.30
2023-01-09T08:54:31.931Z,32.10
2023-01-09T08:57:01.293Z,32.58
2023-01-09T08:59:28.433Z,29.83
2023-01-09T09:01:55.649Z,33.55
2023-01-09T09:04:25.946Z,32.92
2023-01-09T09:06:53.056Z,32.85
2023-01-09T09:09:20.219Z,33.92
2023-01-09T09:11:50.318Z,34.47
2023-01-09T09:14:35.865Z,34.67
2023-01-09T09:17:03.071Z,35.55
2023-01-09T09:19:30.146Z,35.83
2023-01-09T09:21:57.233Z,35.85
2023-01-09T09:24:24.363Z,38.22
2023-01-09T09:26:51.596Z,33.38
2023-01-09T09:29:18.715Z,36.10
2023-01-09T09:31:48.138Z,34.85
2023-01-09T09:34:15.320Z,32.13
2023-01-09T09:36:42.473Z,33.08
2023-01-09T09:39:09.654Z,33.33
2023-01-09T09:42:28.793Z,33.78
2023-01-09T09:45:05.986Z,34.03
2023-01-09T09:48:18.759Z,36.17
2023-01-09T09:51:26.383Z,39.40
2023-01-09T09:54:25.876Z,37.25
2023-01-09T09:57:01.541Z,38.97
2023-01-09T09:59:38.388Z,39.55
2023-01-09T10:02:29.826Z,37.15
2023-01-09T10:05:17.222Z,34.45
2023-01-09T10:07:51.023Z,33.28
2023-01-09T10:10:37.471Z,34.88
2023-01-09T10:13:24.990Z,36.65
2023-01-09T10:16:22.964Z,41.45
2023-01-09T10:19:27.426Z,35.30
2023-01-09T10:22:51.563Z,36.38
2023-01-09T10:25:45.989Z,37.38
2023-01-09T10:28:14.066Z,38.70
2023-01-09T10:31:01.173Z,42.50
2023-01-09T10:34:06.914Z,39.05
2023-01-09T10:37:13.573Z,40.30
2023-01-09T10:39:59.305Z,38.97
2023-01-09T10:42:40.944Z,39.58
2023-01-09T10:45:22.534Z,39.42
2023-01-09T10:47:49.847Z,43.53
2023-01-09T10:50:24.212Z,40.47
2023-01-09T10:52:54.579Z,40.65
2023-01-09T10:55:39.866Z,52.80
2023-01-09T10:58:17.210Z,39.83
2023-01-09T11:00:45.525Z,37.60
2023-01-09T11:03:15.398Z,36.72
2023-01-09T11:05:43.460Z,38.90
2023-01-09T11:08:13.183Z,40.42
2023-01-09T11:10:48.105Z,38.60
2023-01-09T11:13:29.414Z,37.85
2023-01-09T11:16:07.235Z,37.75
2023-01-09T11:18:38.818Z,38.08
2023-01-09T11:21:31.074Z,38.88
2023-01-09T11:24:24.010Z,39.53
2023-01-09T11:26:54.136Z,38.13
2023-01-09T11:29:24.706Z,37.53
2023-01-09T11:31:58.264Z,35.88
2023-01-09T11:34:32.747Z,36.15
2023-01-09T11:37:11.797Z,38.08
2023-01-09T11:39:48.140Z,36.97
2023-01-09T11:42:43.392Z,33.95
2023-01-09T11:45:32.815Z,35.13
2023-01-09T11:48:00.221Z,35.25
2023-01-09T11:50:30.255Z,35.60
2023-01-09T11:53:17.945Z,36.08
2023-01-09T11:56:04.641Z,35.92
2023-01-09T11:58:35.206Z,34.58
2023-01-09T12:01:36.265Z,37.80
2023-01-09T12:04:19.800Z,39.00
2023-01-09T12:07:14.882Z,34.30
2023-01-09T12:10:01.863Z,33.55
2023-01-09T12:13:01.019Z,31.98
2023-01-09T12:16:03.254Z,31.42
2023-01-09T12:19:19.978Z,31.42
2023-01-09T12:22:20.073Z,35.70
2023-01-09T12:25:23.632Z,33.75
2023-01-09T12:28:05.958Z,33.38
2023-01-09T12:34:11.713Z,33.15
2023-01-09T12:36:59.699Z,34.15
2023-01-09T12:40:02.986Z,34.63
2023-01-09T12:42:53.290Z,33.08
2023-01-09T12:45:38.799Z,39.75
2023-01-09T12:48:36.465Z,33.20
2023-01-09T12:51:29.908Z,31.90
2023-01-09T12:54:41.011Z,33.35
2023-01-09T12:57:24.607Z,33.25
2023-01-09T13:00:21.831Z,34.20
2023-01-09T13:03:15.616Z,32.53
2023-01-09T13:05:53.557Z,33.72
2023-01-09T13:08:38.912Z,41.05
2023-01-09T13:11:47.793Z,43.42
2023-01-09T13:14:16.114Z,39.70
2023-01-09T13:16:48.948Z,42.33
2023-01-09T13:19:37.078Z,42.55
2023-01-09T13:22:07.433Z,40.85
2023-01-09T13:24:51.621Z,42.38
2023-01-09T13:27:22.815Z,42.53
2023-01-09T13:30:08.223Z,43.85
2023-01-09T13:32:56.593Z,46.47
2023-01-09T13:35:23.735Z,44.60
2023-01-09T13:37:53.525Z,45.30
2023-01-09T13:40:20.466Z,46.50
2023-01-09T13:43:09.994Z,44.92
2023-01-09T13:45:39.571Z,42.55
2023-01-09T13:48:10.034Z,41.75
2023-01-09T13:50:42.210Z,39.72
2023-01-09T13:53:18.646Z,38.90
2023-01-09T13:55:58.526Z,40.47
2023-01-09T13:58:28.782Z,43.47
2023-01-09T14:00:59.767Z,48.15
2023-01-09T14:03:38.078Z,55.97
2023-01-09T14:06:13.280Z,50.15
2023-01-09T14:08:44.609Z,48.92
2023-01-09T14:11:19.888Z,50.13
2023-01-09T14:13:52.415Z,46.70
2023-01-09T14:16:25.542Z,49.83
2023-01-09T14:19:06.056Z,50.15
2023-01-09T14:21:55.358Z,51.30
2023-01-09T14:24:46.691Z,62.33
2023-01-09T14:28:04.001Z,50.85
2023-01-09T14:30:34.019Z,45.70
2023-01-09T14:33:19.523Z,45.55
2023-01-09T14:36:18.739Z,44.08
2023-01-09T14:38:59.160Z,42.22
2023-01-09T14:41:58.398Z,37.40
2023-01-09T14:44:52.434Z,36.20
2023-01-09T14:47:49.275Z,36.17
2023-01-09T14:50:32.222Z,38.22
2023-01-09T14:53:22.490Z,38.75
2023-01-09T14:55:58.394Z,44.63
2023-01-09T14:58:33.174Z,42.90
2023-01-09T15:01:10.784Z,38.75
2023-01-09T15:03:53.578Z,40.38
2023-01-09T15:06:24.339Z,41.60
2023-01-09T15:09:34.531Z,48.22
2023-01-09T15:12:09.533Z,54.47
2023-01-09T15:14:45.807Z,54.38
2023-01-09T15:17:36.688Z,41.38
2023-01-09T15:20:07.544Z,46.53
2023-01-09T15:22:37.434Z,50.17
2023-01-09T15:25:39.998Z,46.00
2023-01-09T15:28:30.882Z,44.83
2023-01-09T15:31:10.861Z,43.92
2023-01-09T15:33:40.709Z,43.45
2023-01-09T15:36:31.988Z,41.22
2023-01-09T15:39:00.300Z,40.53
2023-01-09T15:41:48.889Z,40.70
2023-01-09T15:44:28.211Z,41.72
2023-01-09T15:47:03.444Z,39.95
2023-01-09T15:49:31.854Z,38.75
2023-01-09T15:52:00.469Z,38.72
2023-01-09T15:54:33.669Z,38.45
2023-01-09T15:57:25.871Z,40.25
2023-01-09T15:59:55.329Z,40.15
2023-01-09T16:02:43.825Z,40.80
2023-01-09T16:05:17.290Z,41.00
2023-01-09T16:07:50.326Z,38.90
2023-01-09T16:10:49.020Z,47.22
2023-01-09T16:13:16.494Z,43.28
2023-01-09T16:15:47.030Z,42.25
2023-01-09T16:18:16.807Z,42.28
2023-01-09T16:20:45.681Z,45.45
2023-01-09T16:23:32.317Z,46.47
2023-01-09T16:26:24.072Z,44.95
2023-01-09T16:28:53.589Z,44.77
2023-01-09T16:31:33.555Z,42.50
2023-01-09T16:34:07.273Z,43.22
2023-01-09T16:36:36.125Z,42.40
2023-01-09T16:39:04.192Z,45.70
2023-01-09T16:41:50.355Z,41.00
2023-01-09T16:44:23.861Z,41.08
2023-01-09T16:46:51.081Z,40.47
2023-01-09T16:49:29.011Z,40.97
2023-01-09T16:51:57.106Z,43.92
2023-01-09T16:54:24.307Z,43.75
2023-01-09T16:56:54.547Z,42.50
2023-01-09T16:59:28.227Z,41.88
2023-01-09T17:01:55.729Z,42.08
2023-01-09T17:04:26.606Z,42.80
2023-01-09T17:06:56.099Z,43.92
2023-01-09T17:09:25.860Z,40.97
2023-01-09T17:11:56.823Z,41.70
2023-01-09T17:14:24.638Z,40.40
2023-01-09T17:16:51.742Z,41.50
2023-01-09T17:19:20.694Z,39.47
2023-01-09T17:21:48.179Z,40.88
2023-01-09T17:24:34.130Z,39.85
2023-01-09T17:27:21.078Z,41.00
2023-01-09T17:29:48.563Z,39.72
2023-01-09T17:32:19.408Z,40.90
2023-01-09T17:34:46.688Z,40.53
2023-01-09T17:37:19.376Z,41.25
2023-01-09T17:39:46.655Z,40.90
2023-01-09T17:42:16.048Z,40.00
2023-01-09T17:44:43.241Z,38.90
2023-01-09T17:47:17.787Z,41.63
2023-01-09T17:49:47.835Z,39.15
2023-01-09T17:52:15.059Z,40.83
2023-01-09T17:54:43.152Z,40.17
2023-01-09T17:57:17.495Z,41.75
2023-01-09T17:59:47.783Z,39.85
2023-01-09T18:02:19.466Z,39.25
2023-01-09T18:04:46.712Z,41.33
2023-01-09T18:07:18.308Z,41.15
2023-01-09T18:09:45.579Z,39.60
2023-01-09T18:12:15.271Z,40.50
2023-01-09T18:14:42.952Z,39.20
2023-01-09T18:17:15.140Z,39.53
2023-01-09T18:22:09.741Z,38.45
2023-01-09T18:24:39.752Z,40.95
2023-01-09T18:27:06.915Z,40.55
2023-01-09T18:29:34.075Z,39.45
2023-01-09T18:32:01.271Z,39.92
2023-01-09T18:34:28.324Z,39.45
2023-01-09T18:36:55.486Z,40.05
2023-01-09T18:39:23.048Z,40.67
2023-01-09T18:41:50.839Z,40.90
2023-01-09T18:44:20.212Z,39.75
2023-01-09T18:46:50.272Z,42.20
2023-01-09T18:49:19.432Z,38.70
2023-01-09T18:51:46.560Z,37.28
2023-01-09T18:54:17.800Z,38.85
2023-01-09T18:56:47.044Z,39.13
2023-01-09T18:59:14.118Z,39.08
2023-01-09T19:01:41.474Z,39.50
2023-01-09T19:04:08.663Z,38.95
2023-01-09T19:06:38.394Z,38.42
2023-01-09T19:09:07.925Z,37.53
2023-01-09T19:11:37.172Z,44.38
2023-01-09T19:14:04.601Z,37.88
2023-01-09T19:16:34.290Z,37.53
2023-01-09T19:19:02.814Z,37.55
2023-01-09T19:21:30.067Z,36.50
2023-01-09T19:23:58.877Z,36.67
2023-01-09T19:26:28.444Z,36.65
2023-01-09T19:28:57.819Z,37.13
2023-01-09T19:31:30.307Z,35.45
2023-01-09T19:33:58.808Z,35.45
2023-01-09T19:36:27.001Z,36.95
2023-01-09T19:39:02.684Z,36.85
2023-01-09T19:41:30.492Z,37.53
2023-01-09T19:43:59.675Z,36.90
2023-01-09T19:46:29.654Z,38.42
2023-01-09T19:48:59.020Z,36.83
2023-01-09T19:51:28.941Z,35.70
2023-01-09T19:56:30.780Z,35.75
2023-01-09T19:59:04.024Z,36.70
2023-01-09T20:01:37.280Z,38.65
2023-01-09T20:04:13.687Z,37.63
2023-01-09T20:06:45.387Z,36.10
2023-01-09T20:09:15.335Z,33.15
2023-01-09T20:11:44.847Z,34.55
2023-01-09T20:14:14.407Z,39.08
2023-01-09T20:16:42.496Z,35.80
2023-01-09T20:19:15.269Z,31.33
2023-01-09T20:21:42.995Z,30.80
2023-01-09T20:24:15.226Z,31.38
2023-01-09T20:29:12.796Z,28.90
2023-01-09T20:31:40.030Z,29.33
2023-01-09T20:34:07.251Z,30.08
2023-01-09T20:36:35.165Z,30.42
2023-01-09T20:39:06.989Z,29.52
2023-01-09T20:41:36.954Z,30.63
2023-01-09T20:44:08.150Z,27.02
2023-01-09T20:46:42.854Z,28.83
2023-01-09T20:49:13.752Z,27.25
2023-01-09T20:51:48.648Z,27.50
2023-01-09T20:54:17.375Z,27.23
2023-01-09T20:56:44.679Z,27.90
2023-01-09T20:59:17.108Z,26.15
2023-01-09T21:01:44.421Z,26.95
2023-01-09T21:04:11.684Z,25.38
2023-01-09T21:06:40.305Z,24.48
2023-01-09T21:09:07.570Z,26.33
2023-01-09T21:11:34.878Z,26.67
2023-01-09T21:14:01.953Z,26.08
2023-01-09T21:16:29.564Z,25.00
2023-01-09T21:18:56.769Z,26.50
2023-01-09T21:21:27.604Z,23.50
2023-01-09T21:24:00.942Z,25.95
2023-01-09T21:26:30.710Z,25.02
2023-01-09T21:29:00.941Z,23.42
2023-01-09T21:31:34.954Z,23.38
2023-01-09T21:34:08.193Z,22.45
2023-01-09T21:36:37.885Z,22.25
2023-01-09T21:39:08.605Z,22.05
2023-01-09T21:41:54.631Z,21.48
2023-01-09T21:44:40.440Z,24.27
2023-01-09T21:47:07.600Z,22.90
2023-01-09T21:49:36.140Z,22.70
2023-01-09T21:52:04.756Z,22.05
2023-01-09T21:54:33.067Z,22.25
2023-01-09T21:57:03.026Z,21.25
2023-01-09T21:59:30.207Z,21.75
2023-01-09T22:01:58.128Z,21.77
2023-01-09T22:04:28.495Z,22.92
2023-01-09T22:06:56.413Z,24.77
2023-01-09T22:09:23.652Z,23.55
2023-01-09T22:11:52.280Z,22.35
2023-01-09T22:14:22.782Z,21.17
2023-01-09T22:16:49.871Z,21.15
2023-01-09T22:19:20.521Z,21.90
2023-01-09T22:21:48.764Z,22.40
2023-01-09T22:24:21.765Z,20.83
2023-01-09T22:26:49.100Z,22.30
2023-01-09T22:29:17.466Z,22.30
2023-01-09T22:31:44.613Z,21.55
2023-01-09T22:34:17.399Z,22.15
2023-01-09T22:36:47.745Z,22.40
2023-01-09T22:39:19.354Z,21.40
2023-01-09T22:41:52.572Z,22.60
2023-01-09T22:44:19.769Z,22.02
2023-01-09T22:46:49.429Z,22.52
2023-01-09T22:49:16.519Z,21.35
2023-01-09T22:51:47.117Z,22.88
2023-01-09T22:54:14.329Z,23.80
2023-01-09T22:56:43.960Z,22.52
2023-01-09T22:59:11.024Z,23.20
2023-01-09T23:01:38.216Z,22.02
2023-01-09T23:04:07.866Z,22.42
2023-01-09T23:06:35.089Z,22.08
2023-01-09T23:09:04.747Z,21.10
2023-01-09T23:11:50.683Z,22.08
2023-01-09T23:14:18.282Z,20.35
2023-01-09T23:16:45.448Z,22.40
2023-01-09T23:19:15.813Z,22.48
2023-01-09T23:21:44.643Z,22.48
2023-01-09T23:24:16.325Z,21.88
2023-01-09T23:26:44.628Z,21.75
2023-01-09T23:29:13.051Z,23.85
2023-01-09T23:31:41.340Z,22.05
2023-01-09T23:34:09.229Z,21.67
2023-01-09T23:36:36.434Z,22.23
2023-01-09T23:39:08.776Z,21.50
2023-01-09T23:41:55.645Z,22.83
2023-01-09T23:44:23.284Z,22.35
2023-01-09T23:46:50.414Z,22.90
2023-01-09T23:49:20.126Z,20.88
2023-01-09T23:51:47.346Z,18.60
2023-01-09T23:54:20.902Z,17.83
2023-01-09T23:56:48.062Z,18.98
2023-01-09T23:59:17.586Z,16.70
